sensor_id;sensor_type;location;lat;lon;timestamp;pressure;altitude;pressure_sealevel;temperature;humidity
14612;BME280;7392;52.078;11.650;2023-01-27T00:00:48;101490.94;;;-0.83;100.00
14612;BME280;7392;52.078;11.650;2023-01-27T00:03:16;101489.22;;;-0.82;100.00
14612;BME280;7392;52.078;11.650;2023-01-27T00:05:46;101489.22;;;-0.82;100.00
14612;BME280;7392;52.078;11.650;2023-01-27T00:08:14;101484.00;;;-0.82;100.00
14612;BME280;7392;52.078;11.650;2023-01-27T00:10:42;101484.00;;;-0.82;100.00
14612;BME280;7392;52.078;11.650;2023-01-27T00:13:11;101485.81;;;-0.81;100.00
14612;BME280;7392;52.078;11.650;2023-01-27T00:15:53;101481.47;;;-0.81;100.00
14612;BME280;7392;52.078;11.650;2023-01-27T00:18:21;101475.38;;;-0.81;100.00
14612;BME280;7392;52.078;11.650;2023-01-27T00:20:51;101478.88;;;-0.81;100.00
14612;BME280;7392;52.078;11.650;2023-01-27T00:23:36;101471.03;;;-0.81;100.00
14612;BME280;7392;52.078;11.650;2023-01-27T00:26:21;101477.19;;;-0.80;100.00
14612;BME280;7392;52.078;11.650;2023-01-27T00:28:49;101475.47;;;-0.80;100.00
14612;BME280;7392;52.078;11.650;2023-01-27T00:31:17;101468.44;;;-0.81;100.00
14612;BME280;7392;52.078;11.650;2023-01-27T00:34:03;101471.13;;;-0.79;100.00
14612;BME280;7392;52.078;11.650;2023-01-27T00:36:38;101463.22;;;-0.81;100.00
14612;BME280;7392;52.078;11.650;2023-01-27T00:39:08;101467.63;;;-0.80;100.00
14612;BME280;7392;52.078;11.650;2023-01-27T00:41:36;101469.34;;;-0.80;100.00
14612;BME280;7392;52.078;11.650;2023-01-27T00:44:04;101465.03;;;-0.80;100.00
14612;BME280;7392;52.078;11.650;2023-01-27T00:46:32;101463.31;;;-0.79;100.00
14612;BME280;7392;52.078;11.650;2023-01-27T00:49:00;101454.59;;;-0.80;100.00
14612;BME280;7392;52.078;11.650;2023-01-27T00:51:28;101465.03;;;-0.80;100.00
14612;BME280;7392;52.078;11.650;2023-01-27T00:53:57;101466.00;;;-0.78;100.00
14612;BME280;7392;52.078;11.650;2023-01-27T00:56:28;101467.72;;;-0.78;100.00
14612;BME280;7392;52.078;11.650;2023-01-27T00:58:55;101466.00;;;-0.78;100.00
14612;BME280;7392;52.078;11.650;2023-01-27T01:01:23;101471.13;;;-0.79;100.00
14612;BME280;7392;52.078;11.650;2023-01-27T01:03:51;101467.63;;;-0.80;100.00
14612;BME280;7392;52.078;11.650;2023-01-27T01:06:19;101472.09;;;-0.77;100.00
14612;BME280;7392;52.078;11.650;2023-01-27T01:08:47;101477.31;;;-0.77;100.00
14612;BME280;7392;52.078;11.650;2023-01-27T01:11:21;101479.03;;;-0.78;100.00
14612;BME280;7392;52.078;11.650;2023-01-27T01:13:49;101478.25;;;-0.77;100.00
14612;BME280;7392;52.078;11.650;2023-01-27T01:16:19;101475.53;;;-0.78;100.00
14612;BME280;7392;52.078;11.650;2023-01-27T01:18:48;101479.94;;;-0.77;100.00
14612;BME280;7392;52.078;11.650;2023-01-27T01:21:15;101480.84;;;-0.77;100.00
14612;BME280;7392;52.078;11.650;2023-01-27T01:23:44;101482.63;;;-0.76;100.00
14612;BME280;7392;52.078;11.650;2023-01-27T01:26:14;101484.34;;;-0.76;100.00
14612;BME280;7392;52.078;11.650;2023-01-27T01:28:44;101479.22;;;-0.74;100.00
14612;BME280;7392;52.078;11.650;2023-01-27T01:31:13;101486.97;;;-0.76;100.00
14612;BME280;7392;52.078;11.650;2023-01-27T01:33:41;101497.50;;;-0.74;100.00
14612;BME280;7392;52.078;11.650;2023-01-27T01:36:10;101495.69;;;-0.76;100.00
14612;BME280;7392;52.078;11.650;2023-01-27T01:38:38;101489.66;;;-0.74;100.00
14612;BME280;7392;52.078;11.650;2023-01-27T01:41:10;101495.75;;;-0.74;100.00
14612;BME280;7392;52.078;11.650;2023-01-27T01:43:38;101499.25;;;-0.73;100.00
14612;BME280;7392;52.078;11.650;2023-01-27T01:46:09;101495.84;;;-0.72;100.00
14612;BME280;7392;52.078;11.650;2023-01-27T01:48:39;101489.84;;;-0.71;100.00
14612;BME280;7392;52.078;11.650;2023-01-27T01:51:10;101488.91;;;-0.72;100.00
14612;BME280;7392;52.078;11.650;2023-01-27T01:53:42;101492.44;;;-0.71;100.00
14612;BME280;7392;52.078;11.650;2023-01-27T01:56:12;101496.81;;;-0.70;100.00
14612;BME280;7392;52.078;11.650;2023-01-27T01:58:44;101505.59;;;-0.70;100.00
14612;BME280;7392;52.078;11.650;2023-01-27T02:01:15;101510.78;;;-0.70;100.00
14612;BME280;7392;52.078;11.650;2023-01-27T02:03:46;101509.00;;;-0.71;100.00
14612;BME280;7392;52.078;11.650;2023-01-27T02:06:16;101513.41;;;-0.70;100.00
14612;BME280;7392;52.078;11.650;2023-01-27T02:08:45;101517.69;;;-0.70;100.00
14612;BME280;7392;52.078;11.650;2023-01-27T02:11:14;101509.97;;;-0.69;100.00
14612;BME280;7392;52.078;11.650;2023-01-27T02:13:42;101516.91;;;-0.69;100.00
14612;BME280;7392;52.078;11.650;2023-01-27T02:16:11;101507.34;;;-0.69;100.00
14612;BME280;7392;52.078;11.650;2023-01-27T02:18:40;101509.06;;;-0.69;100.00
14612;BME280;7392;52.078;11.650;2023-01-27T02:21:08;101503.03;;;-0.68;100.00
14612;BME280;7392;52.078;11.650;2023-01-27T02:23:48;101512.66;;;-0.67;100.00
14612;BME280;7392;52.078;11.650;2023-01-27T02:26:22;101504.84;;;-0.67;100.00
14612;BME280;7392;52.078;11.650;2023-01-27T02:28:54;101516.16;;;-0.67;100.00
14612;BME280;7392;52.078;11.650;2023-01-27T02:31:23;101513.56;;;-0.67;100.00
14612;BME280;7392;52.078;11.650;2023-01-27T02:33:51;101505.72;;;-0.67;100.00
14612;BME280;7392;52.078;11.650;2023-01-27T02:36:21;101503.13;;;-0.67;100.00
14612;BME280;7392;52.078;11.650;2023-01-27T02:38:51;101521.47;;;-0.65;100.00
14612;BME280;7392;52.078;11.650;2023-01-27T02:41:24;101518.06;;;-0.64;100.00
14612;BME280;7392;52.078;11.650;2023-01-27T02:43:54;101519.78;;;-0.65;100.00
14612;BME280;7392;52.078;11.650;2023-01-27T02:46:22;101517.16;;;-0.65;100.00
14612;BME280;7392;52.078;11.650;2023-01-27T02:48:49;101518.06;;;-0.64;100.00
14612;BME280;7392;52.078;11.650;2023-01-27T02:51:17;101524.16;;;-0.64;100.00
14612;BME280;7392;52.078;11.650;2023-01-27T02:53:46;101532.91;;;-0.63;100.00
14612;BME280;7392;52.078;11.650;2023-01-27T02:56:13;101535.59;;;-0.62;100.00
14612;BME280;7392;52.078;11.650;2023-01-27T02:58:43;101536.41;;;-0.63;100.00
14612;BME280;7392;52.078;11.650;2023-01-27T03:01:17;101537.31;;;-0.62;100.00
14612;BME280;7392;52.078;11.650;2023-01-27T03:03:45;101538.19;;;-0.62;100.00
14612;BME280;7392;52.078;11.650;2023-01-27T03:06:17;101533.81;;;-0.63;100.00
14612;BME280;7392;52.078;11.650;2023-01-27T03:08:46;101539.13;;;-0.61;100.00
14612;BME280;7392;52.078;11.650;2023-01-27T03:11:14;101540.00;;;-0.61;100.00
14612;BME280;7392;52.078;11.650;2023-01-27T03:14:04;101541.72;;;-0.61;100.00
14612;BME280;7392;52.078;11.650;2023-01-27T03:16:32;101534.78;;;-0.61;100.00
14612;BME280;7392;52.078;11.650;2023-01-27T03:19:17;101538.28;;;-0.60;100.00
14612;BME280;7392;52.078;11.650;2023-01-27T03:21:45;101534.78;;;-0.61;100.00
14612;BME280;7392;52.078;11.650;2023-01-27T03:24:16;101539.19;;;-0.60;100.00
14612;BME280;7392;52.078;11.650;2023-01-27T03:26:44;101541.81;;;-0.60;100.00
14612;BME280;7392;52.078;11.650;2023-01-27T03:29:16;101538.19;;;-0.62;100.00
14612;BME280;7392;52.078;11.650;2023-01-27T03:32:02;101533.91;;;-0.61;100.00
14612;BME280;7392;52.078;11.650;2023-01-27T03:34:31;101532.91;;;-0.63;100.00
14612;BME280;7392;52.078;11.650;2023-01-27T03:37:10;101540.75;;;-0.63;100.00
14612;BME280;7392;52.078;11.650;2023-01-27T03:39:55;101535.53;;;-0.63;100.00
14612;BME280;7392;52.078;11.650;2023-01-27T03:42:40;101540.75;;;-0.63;100.00
14612;BME280;7392;52.078;11.650;2023-01-27T03:45:27;101548.56;;;-0.63;100.00
14612;BME280;7392;52.078;11.650;2023-01-27T03:48:12;101550.34;;;-0.62;100.00
14612;BME280;7392;52.078;11.650;2023-01-27T03:50:40;101545.13;;;-0.62;100.00
14612;BME280;7392;52.078;11.650;2023-01-27T03:53:09;101544.25;;;-0.63;100.00
14612;BME280;7392;52.078;11.650;2023-01-27T03:55:37;101536.50;;;-0.61;100.00
14612;BME280;7392;52.078;11.650;2023-01-27T03:58:15;101551.25;;;-0.62;100.00
14612;BME280;7392;52.078;11.650;2023-01-27T04:00:49;101542.63;;;-0.61;100.00
14612;BME280;7392;52.078;11.650;2023-01-27T04:03:17;101547.03;;;-0.60;100.00
14612;BME280;7392;52.078;11.650;2023-01-27T04:06:03;101541.81;;;-0.60;100.00
14612;BME280;7392;52.078;11.650;2023-01-27T04:08:48;101540.97;;;-0.59;100.00
14612;BME280;7392;52.078;11.650;2023-01-27T04:11:16;101543.69;;;-0.57;100.00
14612;BME280;7392;52.078;11.650;2023-01-27T04:14:03;101548.91;;;-0.57;100.00
14612;BME280;7392;52.078;11.650;2023-01-27T04:16:32;101544.56;;;-0.57;100.00
14612;BME280;7392;52.078;11.650;2023-01-27T04:19:02;101535.03;;;-0.56;100.00
14612;BME280;7392;52.078;11.650;2023-01-27T04:21:30;101544.66;;;-0.55;100.00
14612;BME280;7392;52.078;11.650;2023-01-27T04:23:59;101549.00;;;-0.55;100.00
14612;BME280;7392;52.078;11.650;2023-01-27T04:26:27;101548.09;;;-0.56;100.00
14612;BME280;7392;52.078;11.650;2023-01-27T04:28:59;101546.38;;;-0.55;100.00
14612;BME280;7392;52.078;11.650;2023-01-27T04:31:26;101547.25;;;-0.55;100.00
14612;BME280;7392;52.078;11.650;2023-01-27T04:33:55;101548.19;;;-0.54;100.00
14612;BME280;7392;52.078;11.650;2023-01-27T04:36:23;101550.78;;;-0.54;100.00
14612;BME280;7392;52.078;11.650;2023-01-27T04:38:51;101556.81;;;-0.55;100.00
14612;BME280;7392;52.078;11.650;2023-01-27T04:43:57;101566.47;;;-0.54;100.00
14612;BME280;7392;52.078;11.650;2023-01-27T04:46:25;101576.06;;;-0.53;100.00
14612;BME280;7392;52.078;11.650;2023-01-27T04:48:52;101575.19;;;-0.54;100.00
14612;BME280;7392;52.078;11.650;2023-01-27T04:51:21;101578.69;;;-0.53;100.00
14612;BME280;7392;52.078;11.650;2023-01-27T04:53:49;101579.59;;;-0.53;100.00
14612;BME280;7392;52.078;11.650;2023-01-27T04:56:23;101575.19;;;-0.54;100.00
14612;BME280;7392;52.078;11.650;2023-01-27T04:58:51;101581.28;;;-0.53;100.00
14612;BME280;7392;52.078;11.650;2023-01-27T05:01:19;101582.22;;;-0.53;100.00
14612;BME280;7392;52.078;11.650;2023-01-27T05:03:47;101580.41;;;-0.54;100.00
14612;BME280;7392;52.078;11.650;2023-01-27T05:06:15;101575.19;;;-0.54;100.00
14612;BME280;7392;52.078;11.650;2023-01-27T05:08:43;101580.47;;;-0.52;100.00
14612;BME280;7392;52.078;11.650;2023-01-27T05:11:11;101584.81;;;-0.53;100.00
14612;BME280;7392;52.078;11.650;2023-01-27T05:13:39;101576.97;;;-0.53;100.00
14612;BME280;7392;52.078;11.650;2023-01-27T05:16:09;101584.81;;;-0.53;100.00
14612;BME280;7392;52.078;11.650;2023-01-27T05:18:38;101597.03;;;-0.52;100.00
14612;BME280;7392;52.078;11.650;2023-01-27T05:21:07;101596.16;;;-0.52;100.00
14612;BME280;7392;52.078;11.650;2023-01-27T05:23:38;101594.44;;;-0.52;100.00
14612;BME280;7392;52.078;11.650;2023-01-27T05:26:11;101610.19;;;-0.50;100.00
14612;BME280;7392;52.078;11.650;2023-01-27T05:28:41;101597.13;;;-0.50;100.00
14612;BME280;7392;52.078;11.650;2023-01-27T05:31:11;101599.72;;;-0.50;100.00
14612;BME280;7392;52.078;11.650;2023-01-27T05:33:41;101600.53;;;-0.51;100.00
14612;BME280;7392;52.078;11.650;2023-01-27T05:36:11;101602.34;;;-0.50;100.00
14612;BME280;7392;52.078;11.650;2023-01-27T05:38:39;101613.69;;;-0.50;100.00
14612;BME280;7392;52.078;11.650;2023-01-27T05:41:10;101618.91;;;-0.50;100.00
14612;BME280;7392;52.078;11.650;2023-01-27T05:43:39;101625.03;;;-0.49;100.00
14612;BME280;7392;52.078;11.650;2023-01-27T05:46:09;101618.00;;;-0.50;100.00
14612;BME280;7392;52.078;11.650;2023-01-27T05:48:39;101632.03;;;-0.48;100.00
14612;BME280;7392;52.078;11.650;2023-01-27T05:51:07;101622.44;;;-0.49;100.00
14612;BME280;7392;52.078;11.650;2023-01-27T05:53:39;101630.34;;;-0.48;100.00
14612;BME280;7392;52.078;11.650;2023-01-27T05:56:10;101627.75;;;-0.48;100.00
14612;BME280;7392;52.078;11.650;2023-01-27T05:58:38;101633.84;;;-0.47;100.00
14612;BME280;7392;52.078;11.650;2023-01-27T06:01:07;101632.13;;;-0.47;100.00
14612;BME280;7392;52.078;11.650;2023-01-27T06:03:36;101629.53;;;-0.47;100.00
14612;BME280;7392;52.078;11.650;2023-01-27T06:06:06;101631.31;;;-0.46;100.00
14612;BME280;7392;52.078;11.650;2023-01-27T06:08:35;101625.19;;;-0.46;100.00
14612;BME280;7392;52.078;11.650;2023-01-27T06:11:03;101625.28;;;-0.45;100.00
14612;BME280;7392;52.078;11.650;2023-01-27T06:13:33;101632.22;;;-0.45;100.00
14612;BME280;7392;52.078;11.650;2023-01-27T06:16:02;101640.03;;;-0.45;100.00
14612;BME280;7392;52.078;11.650;2023-01-27T06:18:30;101633.19;;;-0.43;100.00
14612;BME280;7392;52.078;11.650;2023-01-27T06:20:58;101627.09;;;-0.44;100.00
14612;BME280;7392;52.078;11.650;2023-01-27T06:23:26;101635.81;;;-0.43;100.00
14612;BME280;7392;52.078;11.650;2023-01-27T06:25:54;101647.09;;;-0.44;100.00
14612;BME280;7392;52.078;11.650;2023-01-27T06:28:23;101639.25;;;-0.44;100.00
14612;BME280;7392;52.078;11.650;2023-01-27T06:31:03;101638.41;;;-0.43;100.00
14612;BME280;7392;52.078;11.650;2023-01-27T06:33:31;101641.03;;;-0.43;100.00
14612;BME280;7392;52.078;11.650;2023-01-27T06:36:01;101645.38;;;-0.44;100.00
14612;BME280;7392;52.078;11.650;2023-01-27T06:38:29;101643.63;;;-0.43;100.00
14612;BME280;7392;52.078;11.650;2023-01-27T06:40:58;101645.44;;;-0.42;100.00
14612;BME280;7392;52.078;11.650;2023-01-27T06:43:26;101650.75;;;-0.41;100.00
14612;BME280;7392;52.078;11.650;2023-01-27T06:45:53;101647.31;;;-0.40;100.00
14612;BME280;7392;52.078;11.650;2023-01-27T06:48:24;101651.75;;;-0.39;100.00
14612;BME280;7392;52.078;11.650;2023-01-27T06:50:53;101650.84;;;-0.39;100.00
14612;BME280;7392;52.078;11.650;2023-01-27T06:53:21;101654.34;;;-0.39;100.00
14612;BME280;7392;52.078;11.650;2023-01-27T06:55:54;101655.25;;;-0.38;100.00
14612;BME280;7392;52.078;11.650;2023-01-27T06:58:21;101656.22;;;-0.36;100.00
14612;BME280;7392;52.078;11.650;2023-01-27T07:00:49;101660.56;;;-0.36;100.00
14612;BME280;7392;52.078;11.650;2023-01-27T07:03:19;101661.44;;;-0.36;100.00
14612;BME280;7392;52.078;11.650;2023-01-27T07:05:48;101664.16;;;-0.34;100.00
14612;BME280;7392;52.078;11.650;2023-01-27T07:08:15;101668.47;;;-0.35;100.00
14612;BME280;7392;52.078;11.650;2023-01-27T07:10:43;101665.94;;;-0.33;100.00
14612;BME280;7392;52.078;11.650;2023-01-27T07:13:12;101668.56;;;-0.33;100.00
14612;BME280;7392;52.078;11.650;2023-01-27T07:15:40;101677.38;;;-0.31;100.00
14612;BME280;7392;52.078;11.650;2023-01-27T07:18:09;101672.16;;;-0.31;100.00
14612;BME280;7392;52.078;11.650;2023-01-27T07:20:37;101673.97;;;-0.30;100.00
14612;BME280;7392;52.078;11.650;2023-01-27T07:23:06;101669.53;;;-0.31;100.00
14612;BME280;7392;52.078;11.650;2023-01-27T07:25:33;101680.09;;;-0.30;100.00
14612;BME280;7392;52.078;11.650;2023-01-27T07:28:02;101673.13;;;-0.29;100.00
14612;BME280;7392;52.078;11.650;2023-01-27T07:30:30;101684.59;;;-0.27;100.00
14612;BME280;7392;52.078;11.650;2023-01-27T07:33:02;101682.03;;;-0.26;100.00
14612;BME280;7392;52.078;11.650;2023-01-27T07:35:30;101686.47;;;-0.25;100.00
14612;BME280;7392;52.078;11.650;2023-01-27T07:37:58;101675.22;;;-0.24;100.00
14612;BME280;7392;52.078;11.650;2023-01-27T07:40:27;101684.03;;;-0.22;100.00
14612;BME280;7392;52.078;11.650;2023-01-27T07:42:56;101684.13;;;-0.20;100.00
14612;BME280;7392;52.078;11.650;2023-01-27T07:45:26;101687.72;;;-0.18;100.00
14612;BME280;7392;52.078;11.650;2023-01-27T07:47:59;101683.47;;;-0.16;100.00
14612;BME280;7392;52.078;11.650;2023-01-27T07:50:26;101687.97;;;-0.13;100.00
14612;BME280;7392;52.078;11.650;2023-01-27T07:52:57;101692.47;;;-0.11;100.00
14612;BME280;7392;52.078;11.650;2023-01-27T07:55:27;101696.06;;;-0.09;100.00
14612;BME280;7392;52.078;11.650;2023-01-27T07:57:55;101700.47;;;-0.08;100.00
14612;BME280;7392;52.078;11.650;2023-01-27T08:00:23;101690.91;;;-0.07;100.00
14612;BME280;7392;52.078;11.650;2023-01-27T08:02:51;101693.72;;;-0.04;100.00
14612;BME280;7392;52.078;11.650;2023-01-27T08:05:20;101687.69;;;-0.03;100.00
14612;BME280;7392;52.078;11.650;2023-01-27T08:07:48;101699.19;;;0.01;100.00
14612;BME280;7392;52.078;11.650;2023-01-27T08:10:17;101688.84;;;0.02;100.00
14612;BME280;7392;52.078;11.650;2023-01-27T08:12:46;101695.94;;;0.05;100.00
14612;BME280;7392;52.078;11.650;2023-01-27T08:15:14;101696.00;;;0.06;100.00
14612;BME280;7392;52.078;11.650;2023-01-27T08:17:52;101697.00;;;0.08;100.00
14612;BME280;7392;52.078;11.650;2023-01-27T08:20:19;101700.66;;;0.12;100.00
14612;BME280;7392;52.078;11.650;2023-01-27T08:22:47;101705.09;;;0.13;100.00
14612;BME280;7392;52.078;11.650;2023-01-27T08:25:15;101699.97;;;0.14;100.00
14612;BME280;7392;52.078;11.650;2023-01-27T08:27:42;101700.94;;;0.16;100.00
14612;BME280;7392;52.078;11.650;2023-01-27T08:30:12;101699.38;;;0.20;100.00
14612;BME280;7392;52.078;11.650;2023-01-27T08:32:40;101703.06;;;0.24;100.00
14612;BME280;7392;52.078;11.650;2023-01-27T08:35:08;101703.25;;;0.27;100.00
14612;BME280;7392;52.078;11.650;2023-01-27T08:37:35;101705.22;;;0.31;100.00
14612;BME280;7392;52.078;11.650;2023-01-27T08:40:03;101711.59;;;0.36;100.00
14612;BME280;7392;52.078;11.650;2023-01-27T08:44:59;101713.63;;;0.42;100.00
14612;BME280;7392;52.078;11.650;2023-01-27T08:47:28;101714.72;;;0.45;100.00
14612;BME280;7392;52.078;11.650;2023-01-27T08:49:55;101719.28;;;0.49;100.00
14612;BME280;7392;52.078;11.650;2023-01-27T08:52:23;101718.72;;;0.55;100.00
14612;BME280;7392;52.078;11.650;2023-01-27T08:54:52;101717.16;;;0.59;100.00
14612;BME280;7392;52.078;11.650;2023-01-27T08:57:20;101721.75;;;0.63;100.00
14612;BME280;7392;52.078;11.650;2023-01-27T08:59:48;101723.72;;;0.67;100.00
14612;BME280;7392;52.078;11.650;2023-01-27T09:02:15;101727.47;;;0.72;100.00
14612;BME280;7392;52.078;11.650;2023-01-27T09:04:44;101726.81;;;0.76;100.00
14612;BME280;7392;52.078;11.650;2023-01-27T09:07:12;101718.38;;;0.82;100.00
14612;BME280;7392;52.078;11.650;2023-01-27T09:09:39;101728.13;;;0.84;100.00
14612;BME280;7392;52.078;11.650;2023-01-27T09:12:07;101732.78;;;0.90;100.00
14612;BME280;7392;52.078;11.650;2023-01-27T09:14:35;101731.28;;;0.95;100.00
14612;BME280;7392;52.078;11.650;2023-01-27T09:17:02;101728.09;;;1.01;100.00
14612;BME280;7392;52.078;11.650;2023-01-27T09:19:30;101731.03;;;1.07;100.00
14612;BME280;7392;52.078;11.650;2023-01-27T09:21:59;101734.72;;;1.10;100.00
14612;BME280;7392;52.078;11.650;2023-01-27T09:24:26;101740.28;;;1.17;100.00
14612;BME280;7392;52.078;11.650;2023-01-27T09:26:54;101736.97;;;1.21;100.00
14612;BME280;7392;52.078;11.650;2023-01-27T09:29:21;101736.34;;;1.25;100.00
14612;BME280;7392;52.078;11.650;2023-01-27T09:31:49;101740.91;;;1.29;100.00
14612;BME280;7392;52.078;11.650;2023-01-27T09:34:17;101738.53;;;1.34;100.00
14612;BME280;7392;52.078;11.650;2023-01-27T09:36:47;101742.19;;;1.37;100.00
14612;BME280;7392;52.078;11.650;2023-01-27T09:39:20;101738.91;;;1.41;100.00
14612;BME280;7392;52.078;11.650;2023-01-27T09:42:00;101748.72;;;1.45;100.00
14612;BME280;7392;52.078;11.650;2023-01-27T09:44:45;101749.78;;;1.49;100.00
14612;BME280;7392;52.078;11.650;2023-01-27T09:47:25;101754.34;;;1.53;100.00
14612;BME280;7392;52.078;11.650;2023-01-27T09:50:27;101747.53;;;1.57;100.00
14612;BME280;7392;52.078;11.650;2023-01-27T09:53:15;101756.53;;;1.62;100.00
14612;BME280;7392;52.078;11.650;2023-01-27T09:55:55;101752.31;;;1.65;100.00
14612;BME280;7392;52.078;11.650;2023-01-27T09:58:34;101751.69;;;1.70;100.00
14612;BME280;7392;52.078;11.650;2023-01-27T10:01:12;101749.25;;;1.74;100.00
14612;BME280;7392;52.078;11.650;2023-01-27T10:04:04;101752.13;;;1.79;100.00
14612;BME280;7392;52.078;11.650;2023-01-27T10:06:49;101742.59;;;1.81;100.00
14612;BME280;7392;52.078;11.650;2023-01-27T10:09:33;101747.19;;;1.85;100.00
14612;BME280;7392;52.078;11.650;2023-01-27T10:12:19;101748.97;;;1.86;100.00
14612;BME280;7392;52.078;11.650;2023-01-27T10:14:59;101750.88;;;1.89;100.00
14612;BME280;7392;52.078;11.650;2023-01-27T10:17:35;101753.63;;;1.92;100.00
14612;BME280;7392;52.078;11.650;2023-01-27T10:20:19;101750.19;;;1.93;100.00
14612;BME280;7392;52.078;11.650;2023-01-27T10:22:56;101748.53;;;1.95;100.00
14612;BME280;7392;52.078;11.650;2023-01-27T10:25:33;101754.69;;;1.95;100.00
14612;BME280;7392;52.078;11.650;2023-01-27T10:28:10;101756.53;;;1.98;100.00
14612;BME280;7392;52.078;11.650;2023-01-27T10:30:42;101754.84;;;1.98;100.00
14612;BME280;7392;52.078;11.650;2023-01-27T10:33:16;101760.16;;;2.00;100.00
14612;BME280;7392;52.078;11.650;2023-01-27T10:35:49;101760.28;;;2.03;100.00
14612;BME280;7392;52.078;11.650;2023-01-27T10:38:27;101758.66;;;2.05;100.00
14612;BME280;7392;52.078;11.650;2023-01-27T10:41:05;101757.91;;;2.08;100.00
14612;BME280;7392;52.078;11.650;2023-01-27T10:43:47;101755.34;;;2.09;100.00
14612;BME280;7392;52.078;11.650;2023-01-27T10:46:26;101750.19;;;2.11;100.00
14612;BME280;7392;52.078;11.650;2023-01-27T10:49:00;101750.41;;;2.15;100.00
14612;BME280;7392;52.078;11.650;2023-01-27T10:51:34;101754.00;;;2.17;100.00
14612;BME280;7392;52.078;11.650;2023-01-27T10:54:08;101744.47;;;2.19;100.00
14612;BME280;7392;52.078;11.650;2023-01-27T10:56:40;101744.63;;;2.22;100.00
14612;BME280;7392;52.078;11.650;2023-01-27T10:59:15;101739.47;;;2.24;100.00
14612;BME280;7392;52.078;11.650;2023-01-27T11:01:50;101742.22;;;2.27;100.00
14612;BME280;7392;52.078;11.650;2023-01-27T11:04:28;101745.75;;;2.28;100.00
14612;BME280;7392;52.078;11.650;2023-01-27T11:06:59;101743.22;;;2.29;100.00
14612;BME280;7392;52.078;11.650;2023-01-27T11:09:29;101747.53;;;2.29;100.00
14612;BME280;7392;52.078;11.650;2023-01-27T11:12:00;101747.69;;;2.32;100.00
14612;BME280;7392;52.078;11.650;2023-01-27T11:14:32;101746.03;;;2.34;100.00
14612;BME280;7392;52.078;11.650;2023-01-27T11:17:13;101745.22;;;2.35;100.00
14612;BME280;7392;52.078;11.650;2023-01-27T11:19:45;101755.84;;;2.38;100.00
14612;BME280;7392;52.078;11.650;2023-01-27T11:22:20;101743.56;;;2.37;100.00
14612;BME280;7392;52.078;11.650;2023-01-27T11:24:51;101742.66;;;2.36;100.00
14612;BME280;7392;52.078;11.650;2023-01-27T11:27:34;101754.13;;;2.38;100.00
14612;BME280;7392;52.078;11.650;2023-01-27T11:30:12;101741.00;;;2.38;100.00
14612;BME280;7392;52.078;11.650;2023-01-27T11:32:48;101743.69;;;2.40;100.00
14612;BME280;7392;52.078;11.650;2023-01-27T11:35:18;101748.19;;;2.42;100.00
14612;BME280;7392;52.078;11.650;2023-01-27T11:37:48;101751.78;;;2.45;100.00
14612;BME280;7392;52.078;11.650;2023-01-27T11:40:19;101746.81;;;2.51;100.00
14612;BME280;7392;52.078;11.650;2023-01-27T11:42:48;101744.34;;;2.54;100.00
14612;BME280;7392;52.078;11.650;2023-01-27T11:45:19;101743.53;;;2.55;100.00
14612;BME280;7392;52.078;11.650;2023-01-27T11:47:51;101734.00;;;2.57;100.00
14612;BME280;7392;52.078;11.650;2023-01-27T11:50:20;101732.25;;;2.57;100.00
14612;BME280;7392;52.078;11.650;2023-01-27T11:52:55;101748.88;;;2.58;100.00
14612;BME280;7392;52.078;11.650;2023-01-27T11:55:29;101737.59;;;2.59;100.00
14612;BME280;7392;52.078;11.650;2023-01-27T11:58:10;101739.31;;;2.58;100.00
14612;BME280;7392;52.078;11.650;2023-01-27T12:00:43;101741.88;;;2.57;100.00
14612;BME280;7392;52.078;11.650;2023-01-27T12:03:18;101747.19;;;2.58;100.00
14612;BME280;7392;52.078;11.650;2023-01-27T12:05:52;101747.13;;;2.57;100.00
14612;BME280;7392;52.078;11.650;2023-01-27T12:08:41;101734.88;;;2.57;100.00
14612;BME280;7392;52.078;11.650;2023-01-27T12:11:20;101738.41;;;2.58;100.00
14612;BME280;7392;52.078;11.650;2023-01-27T12:13:49;101740.19;;;2.59;100.00
14612;BME280;7392;52.078;11.650;2023-01-27T12:16:19;101752.44;;;2.58;100.00
14612;BME280;7392;52.078;11.650;2023-01-27T12:18:51;101746.22;;;2.56;100.00
14612;BME280;7392;52.078;11.650;2023-01-27T12:21:32;101741.78;;;2.55;100.00
14612;BME280;7392;52.078;11.650;2023-01-27T12:24:01;101739.91;;;2.53;100.00
14612;BME280;7392;52.078;11.650;2023-01-27T12:26:32;101738.06;;;2.50;100.00
14612;BME280;7392;52.078;11.650;2023-01-27T12:29:04;101735.34;;;2.49;100.00
14612;BME280;7392;52.078;11.650;2023-01-27T12:31:44;101734.47;;;2.48;100.00
14612;BME280;7392;52.078;11.650;2023-01-27T12:34:21;101738.69;;;2.45;100.00
14612;BME280;7392;52.078;11.650;2023-01-27T12:36:51;101739.50;;;2.43;100.00
14612;BME280;7392;52.078;11.650;2023-01-27T12:39:26;101738.44;;;2.40;100.00
14612;BME280;7392;52.078;11.650;2023-01-27T12:41:56;101733.94;;;2.37;100.00
14612;BME280;7392;52.078;11.650;2023-01-27T12:44:25;101739.97;;;2.35;100.00
14612;BME280;7392;52.078;11.650;2023-01-27T12:46:59;101735.53;;;2.34;100.00
14612;BME280;7392;52.078;11.650;2023-01-27T12:49:32;101739.81;;;2.32;100.00
14612;BME280;7392;52.078;11.650;2023-01-27T12:52:01;101744.25;;;2.33;100.00
14612;BME280;7392;52.078;11.650;2023-01-27T12:54:31;101737.97;;;2.29;100.00
14612;BME280;7392;52.078;11.650;2023-01-27T12:57:03;101738.84;;;2.30;100.00
14612;BME280;7392;52.078;11.650;2023-01-27T12:59:32;101741.41;;;2.28;100.00
14612;BME280;7392;52.078;11.650;2023-01-27T13:02:15;101744.81;;;2.27;100.00
14612;BME280;7392;52.078;11.650;2023-01-27T13:04:51;101741.25;;;2.25;100.00
14612;BME280;7392;52.078;11.650;2023-01-27T13:07:22;101735.13;;;2.24;100.00
14612;BME280;7392;52.078;11.650;2023-01-27T13:09:53;101749.09;;;2.25;100.00